Woodbury, Illinois
Current Conditions -  °F | °C
As of 8:15 AM on Monday 20 Oct 2014 (Local Time) from K1H2 Reporting Station
Broken Clouds Broken Clouds  
Wind Chill: 53°   Ceiling: 9000
Heat Index: 53°   Visibility: 10mi
Dew Point: 46°   Wind: 5mph
Humidity: 77%   Direction: 220°SW
Pressure: 29.95"   Gusts: NA
Location:  39.1496°N, 88.3177°W
Report Text: K1H2 201315Z AUTO 22004KT 10SM BKN090 12/08 A2995 RMK AO2 T01160077
Loading
Personal Weather Stations






























Interactive Weather Map
Tropical Storm Tracking
New forecast layout! Learn more

10-Day Weather Forecast

Advertisements
Track Severe Weather on mobile